createdAt,value
2019-05-01T00:06:01.916Z,36.70
2019-05-01T00:08:38.312Z,40.90
2019-05-01T00:11:05.906Z,41.40
2019-05-01T00:13:48.664Z,41.00
2019-05-01T00:16:24.609Z,38.80
2019-05-01T00:19:06.889Z,42.43
2019-05-01T00:21:43.112Z,39.07
2019-05-01T00:24:25.450Z,41.27
2019-05-01T00:27:01.593Z,41.17
2019-05-01T00:29:44.348Z,42.77
2019-05-01T00:32:20.774Z,39.27
2019-05-01T00:35:04.011Z,40.07
2019-05-01T00:37:33.639Z,41.50
2019-05-01T00:40:15.820Z,41.70
2019-05-01T00:43:07.869Z,39.80
2019-05-01T00:45:44.017Z,36.20
2019-05-01T00:48:11.647Z,37.55
2019-05-01T00:50:47.977Z,47.43
2019-05-01T00:53:23.441Z,39.15
2019-05-01T00:55:51.697Z,38.55
2019-05-01T01:01:30.846Z,35.78
2019-05-01T01:04:15.393Z,35.52
2019-05-01T01:06:51.300Z,36.35
2019-05-01T01:09:33.778Z,36.53
2019-05-01T01:12:09.782Z,36.50
2019-05-01T01:14:52.036Z,36.20
2019-05-01T01:17:28.362Z,36.70
2019-05-01T01:20:11.796Z,38.53
2019-05-01T01:22:47.284Z,34.75
2019-05-01T01:25:29.364Z,36.83
2019-05-01T01:28:05.545Z,36.10
2019-05-01T01:30:33.234Z,35.33
2019-05-01T01:33:09.206Z,36.10
2019-05-01T01:35:45.302Z,38.33
2019-05-01T01:38:13.646Z,37.23
2019-05-01T01:40:57.700Z,34.55
2019-05-01T01:43:33.490Z,34.40
2019-05-01T01:46:16.737Z,36.33
2019-05-01T01:49:05.739Z,37.05
2019-05-01T01:51:48.830Z,35.17
2019-05-01T01:54:32.536Z,33.45
2019-05-01T01:57:15.710Z,32.93
2019-05-01T01:59:51.504Z,36.00
2019-05-01T02:02:42.374Z,36.08
2019-05-01T02:05:26.875Z,33.80
2019-05-01T02:08:02.755Z,32.50
2019-05-01T02:10:44.983Z,34.85
2019-05-01T02:13:39.864Z,34.78
2019-05-01T02:16:22.648Z,33.85
2019-05-01T02:18:58.850Z,32.55
2019-05-01T02:21:41.279Z,33.95
2019-05-01T02:24:17.071Z,34.20
2019-05-01T02:27:01.612Z,33.95
2019-05-01T02:29:45.035Z,32.75
2019-05-01T02:32:30.105Z,32.95
2019-05-01T02:35:07.131Z,32.58
2019-05-01T02:42:34.630Z,36.30
2019-05-01T02:45:17.031Z,33.08
2019-05-01T02:48:00.543Z,34.98
2019-05-01T02:50:38.345Z,33.63
2019-05-01T02:53:20.070Z,33.55
2019-05-01T02:56:26.692Z,36.45
2019-05-01T02:59:13.639Z,34.83
2019-05-01T03:01:46.913Z,36.50
2019-05-01T03:04:27.189Z,35.63
2019-05-01T03:07:11.251Z,35.15
2019-05-01T03:09:48.659Z,35.70
2019-05-01T03:12:33.352Z,35.35
2019-05-01T03:15:10.593Z,36.08
2019-05-01T03:17:53.701Z,39.23
2019-05-01T03:20:58.193Z,37.55
2019-05-01T03:23:59.158Z,34.20
2019-05-01T03:26:42.410Z,34.55
2019-05-01T03:29:18.311Z,36.90
2019-05-01T03:32:16.682Z,36.10
2019-05-01T03:34:39.287Z,34.20
2019-05-01T03:37:21.245Z,35.28
2019-05-01T03:39:57.187Z,32.45
2019-05-01T03:42:39.982Z,36.60
2019-05-01T03:45:22.968Z,35.23
2019-05-01T03:47:58.838Z,36.17
2019-05-01T03:50:34.391Z,36.98
2019-05-01T03:53:16.387Z,37.17
2019-05-01T03:55:52.661Z,38.65
2019-05-01T03:58:35.776Z,38.45
2019-05-01T04:01:33.629Z,38.55
2019-05-01T04:04:20.042Z,39.35
2019-05-01T04:06:55.761Z,37.70
2019-05-01T04:09:38.580Z,38.00
2019-05-01T04:12:14.804Z,39.10
2019-05-01T04:14:57.497Z,37.85
2019-05-01T04:17:44.887Z,34.95
2019-05-01T04:22:55.918Z,35.20
2019-05-01T04:25:38.478Z,37.03
2019-05-01T04:28:45.813Z,36.33
2019-05-01T04:31:50.214Z,38.70
2019-05-01T04:34:36.852Z,42.53
2019-05-01T04:39:48.662Z,38.55
2019-05-01T04:42:31.179Z,41.63
2019-05-01T04:45:07.420Z,44.10
2019-05-01T04:47:50.566Z,39.10
2019-05-01T04:50:26.263Z,41.35
2019-05-01T04:53:08.706Z,43.40
2019-05-01T04:55:44.289Z,41.90
2019-05-01T04:58:27.479Z,49.00
2019-05-01T05:01:03.116Z,50.52
2019-05-01T05:03:45.540Z,45.90
2019-05-01T05:06:21.378Z,50.98
2019-05-01T05:09:04.477Z,55.80
2019-05-01T05:11:49.768Z,53.48
2019-05-01T05:14:37.099Z,48.02
2019-05-01T05:17:28.508Z,52.13
2019-05-01T05:20:11.984Z,55.23
2019-05-01T05:22:47.475Z,56.18
2019-05-01T05:25:30.481Z,59.27
2019-05-01T05:28:06.438Z,57.62
2019-05-01T05:30:52.439Z,58.63
2019-05-01T05:33:29.627Z,62.00
2019-05-01T05:35:57.153Z,61.48
2019-05-01T05:38:59.263Z,63.42
2019-05-01T05:41:51.167Z,60.38
2019-05-01T05:44:33.573Z,63.00
2019-05-01T05:47:01.921Z,64.30
2019-05-01T05:49:46.250Z,61.88
2019-05-01T05:52:52.232Z,66.35
2019-05-01T05:55:37.527Z,67.03
2019-05-01T06:04:11.826Z,65.28
2019-05-01T06:07:01.832Z,69.17
2019-05-01T06:10:07.920Z,64.00
2019-05-01T06:13:05.578Z,66.47
2019-05-01T06:16:07.557Z,63.68
2019-05-01T06:19:04.966Z,69.12
2019-05-01T06:22:05.088Z,68.37
2019-05-01T06:24:43.024Z,72.40
2019-05-01T06:27:19.371Z,73.07
2019-05-01T06:30:01.891Z,66.33
2019-05-01T06:32:40.018Z,68.42
2019-05-01T06:38:21.862Z,65.62
2019-05-01T06:41:05.689Z,68.92
2019-05-01T06:44:02.405Z,65.60
2019-05-01T06:46:53.661Z,69.62
2019-05-01T06:49:48.108Z,73.47
2019-05-01T06:52:31.369Z,72.15
2019-05-01T06:55:07.290Z,71.10
2019-05-01T06:57:50.869Z,70.57
2019-05-01T07:00:27.032Z,72.87
2019-05-01T07:03:05.998Z,74.50
2019-05-01T07:08:24.019Z,71.95
2019-05-01T07:10:59.839Z,74.90
2019-05-01T07:13:40.006Z,71.53
2019-05-01T07:18:48.526Z,70.95
2019-05-01T07:24:00.592Z,71.62
2019-05-01T07:26:47.917Z,75.50
2019-05-01T07:29:22.969Z,72.17
2019-05-01T07:32:06.317Z,77.70
2019-05-01T07:34:42.517Z,77.53
2019-05-01T07:37:27.719Z,78.92
2019-05-01T07:40:05.421Z,83.35
2019-05-01T07:42:50.939Z,74.77
2019-05-01T07:46:02.347Z,82.08
2019-05-01T07:48:47.374Z,75.70
2019-05-01T07:51:15.813Z,77.80
2019-05-01T07:54:04.049Z,76.87
2019-05-01T07:56:50.088Z,84.20
2019-05-01T08:02:15.089Z,79.17
2019-05-01T08:04:58.264Z,75.67
2019-05-01T08:07:34.123Z,78.07
2019-05-01T08:12:45.125Z,80.62
2019-05-01T08:15:43.275Z,77.15
2019-05-01T08:18:30.469Z,78.30
2019-05-01T08:21:34.593Z,82.62
2019-05-01T08:24:02.243Z,79.47
2019-05-01T08:35:00.566Z,91.23
2019-05-01T08:37:42.703Z,92.77
2019-05-01T08:40:50.823Z,89.27
2019-05-01T08:43:33.848Z,88.35
2019-05-01T08:46:24.867Z,89.05
2019-05-01T08:49:11.384Z,91.40
2019-05-01T08:51:44.948Z,87.77
2019-05-01T08:56:58.196Z,88.07
2019-05-01T08:59:40.387Z,89.60
2019-05-01T09:02:16.774Z,91.67
2019-05-01T09:05:02.463Z,86.87
2019-05-01T09:07:39.535Z,88.90
2019-05-01T09:10:23.300Z,85.83
2019-05-01T09:12:59.162Z,90.10
2019-05-01T09:15:43.836Z,89.47
2019-05-01T09:18:20.499Z,86.80
2019-05-01T09:21:12.739Z,85.07
2019-05-01T09:23:51.590Z,83.60
2019-05-01T09:26:56.938Z,87.00
2019-05-01T09:29:39.827Z,84.80
2019-05-01T09:32:22.590Z,84.17
2019-05-01T09:34:58.487Z,85.37
2019-05-01T09:37:41.114Z,87.00
2019-05-01T09:40:18.138Z,75.80
2019-05-01T09:43:01.276Z,87.87
2019-05-01T09:45:37.490Z,89.63
2019-05-01T09:48:05.826Z,86.73
2019-05-01T09:50:42.742Z,85.10
2019-05-01T09:53:48.216Z,85.90
2019-05-01T09:59:07.436Z,84.60
2019-05-01T10:01:49.792Z,92.80
2019-05-01T10:04:30.134Z,89.13
2019-05-01T10:06:58.252Z,89.50
2019-05-01T10:09:40.814Z,90.93
2019-05-01T10:12:17.357Z,94.23
2019-05-01T10:14:59.822Z,90.77
2019-05-01T10:17:28.176Z,98.27
2019-05-01T10:19:56.471Z,99.47
2019-05-01T10:22:49.700Z,99.70
2019-05-01T10:25:25.254Z,91.27
2019-05-01T10:31:01.633Z,91.77
2019-05-01T10:33:41.417Z,82.30
2019-05-01T10:36:39.924Z,55.07
2019-05-01T10:39:22.445Z,71.53
2019-05-01T10:41:59.103Z,84.17
2019-05-01T10:44:43.132Z,90.00
2019-05-01T10:47:18.741Z,81.00
2019-05-01T10:50:01.785Z,84.10
2019-05-01T10:52:40.525Z,88.30
2019-05-01T10:55:08.283Z,81.80
2019-05-01T10:57:46.133Z,88.63
2019-05-01T11:00:29.000Z,92.93
2019-05-01T11:03:13.338Z,85.07
2019-05-01T11:05:56.403Z,85.40
2019-05-01T11:08:32.124Z,87.27
2019-05-01T11:11:15.329Z,86.53
2019-05-01T11:13:51.691Z,84.90
2019-05-01T11:16:34.343Z,85.73
2019-05-01T11:19:10.478Z,87.23
2019-05-01T11:21:38.197Z,88.90
2019-05-01T11:24:05.986Z,85.70
2019-05-01T11:26:51.107Z,84.53
2019-05-01T11:29:19.476Z,83.80
2019-05-01T11:32:13.215Z,89.27
2019-05-01T11:34:54.227Z,89.00
2019-05-01T11:37:54.363Z,85.43
2019-05-01T11:40:34.095Z,85.07
2019-05-01T11:43:17.148Z,91.30
2019-05-01T11:45:55.317Z,90.17
2019-05-01T11:48:38.312Z,88.77
2019-05-01T11:51:16.986Z,86.87
2019-05-01T11:54:02.393Z,86.60
2019-05-01T11:57:02.947Z,84.83
2019-05-01T11:59:49.069Z,89.33
2019-05-01T12:08:35.408Z,86.90
2019-05-01T12:11:19.377Z,91.17
2019-05-01T12:13:56.782Z,87.27
2019-05-01T12:16:58.677Z,90.60
2019-05-01T12:22:41.410Z,87.20
2019-05-01T12:25:30.455Z,91.43
2019-05-01T12:28:05.927Z,88.07
2019-05-01T12:30:54.606Z,89.50
2019-05-01T12:33:39.856Z,88.77
2019-05-01T12:36:18.757Z,87.87
2019-05-01T12:39:01.733Z,90.27
2019-05-01T12:41:36.537Z,91.13
2019-05-01T12:44:23.667Z,88.30
2019-05-01T12:47:16.214Z,89.77
2019-05-01T12:52:31.806Z,85.10
2019-05-01T12:55:23.379Z,90.50
2019-05-01T12:57:59.642Z,91.70
2019-05-01T13:00:49.913Z,92.07
2019-05-01T13:03:30.360Z,91.70
2019-05-01T13:06:14.475Z,86.40
2019-05-01T13:08:50.870Z,79.20
2019-05-01T13:14:01.480Z,84.17
2019-05-01T13:16:37.207Z,82.97
2019-05-01T13:19:20.152Z,80.57
2019-05-01T13:21:55.937Z,84.13
2019-05-01T13:29:45.437Z,80.63
2019-05-01T13:32:55.446Z,86.23
2019-05-01T13:35:38.766Z,80.50
2019-05-01T13:38:14.176Z,81.37
2019-05-01T13:40:57.432Z,85.50
2019-05-01T13:43:32.924Z,83.40
2019-05-01T13:46:15.669Z,87.07
2019-05-01T13:48:51.333Z,89.53
2019-05-01T13:51:36.355Z,91.90
2019-05-01T13:54:14.011Z,94.17
2019-05-01T13:59:24.211Z,90.50
2019-05-01T14:02:02.134Z,90.63
2019-05-01T14:04:45.932Z,86.47
2019-05-01T14:07:34.834Z,85.77
2019-05-01T14:10:11.841Z,89.27
2019-05-01T14:15:23.341Z,88.23
2019-05-01T14:18:12.107Z,85.70
2019-05-01T14:21:06.587Z,86.93
2019-05-01T14:24:00.631Z,90.03
2019-05-01T14:29:14.177Z,84.00
2019-05-01T14:31:55.994Z,84.80
2019-05-01T14:34:23.605Z,89.00
2019-05-01T14:36:58.851Z,90.20
2019-05-01T14:39:34.942Z,85.50
2019-05-01T14:42:03.338Z,85.47
2019-05-01T14:47:14.950Z,75.57
2019-05-01T14:49:57.787Z,77.57
2019-05-01T14:52:36.057Z,79.53
2019-05-01T14:55:19.347Z,73.83
2019-05-01T14:57:55.757Z,75.93
2019-05-01T15:05:25.095Z,78.27
2019-05-01T15:08:02.401Z,75.47
2019-05-01T15:15:50.972Z,74.13
2019-05-01T15:21:19.815Z,72.50
2019-05-01T15:23:55.855Z,75.30
2019-05-01T15:26:38.772Z,72.77
2019-05-01T15:29:15.659Z,72.20
2019-05-01T15:31:57.970Z,68.77
2019-05-01T15:34:34.216Z,69.30
2019-05-01T15:37:16.935Z,68.27
2019-05-01T15:39:58.167Z,66.40
2019-05-01T15:42:51.311Z,63.10
2019-05-01T15:45:27.189Z,65.20
2019-05-01T15:48:09.749Z,60.40
2019-05-01T15:50:46.557Z,64.30
2019-05-01T15:53:28.973Z,66.00
2019-05-01T15:56:05.164Z,64.13
2019-05-01T15:58:48.230Z,61.33
2019-05-01T16:01:24.933Z,55.83
2019-05-01T16:04:07.649Z,57.33
2019-05-01T16:06:44.291Z,54.97
2019-05-01T16:09:26.245Z,53.70
2019-05-01T16:12:38.058Z,56.53
2019-05-01T16:15:44.443Z,84.40
2019-05-01T16:18:20.337Z,749.77
2019-05-01T16:21:06.427Z,844.43
2019-05-01T16:23:43.168Z,800.33
2019-05-01T16:26:25.120Z,853.43
2019-05-01T16:29:01.187Z,999.90
2019-05-01T16:36:41.264Z,294.33
2019-05-01T16:42:29.425Z,79.73
2019-05-01T16:50:17.234Z,60.77
2019-05-01T16:52:54.123Z,60.27
2019-05-01T16:55:36.608Z,64.93
2019-05-01T16:58:14.963Z,80.10
2019-05-01T17:04:26.967Z,999.90
2019-05-01T17:07:31.400Z,999.90
2019-05-01T17:10:24.343Z,867.67
2019-05-01T17:13:06.663Z,894.03
2019-05-01T17:15:44.495Z,818.83
2019-05-01T17:18:27.174Z,400.30
2019-05-01T17:21:04.846Z,78.57
2019-05-01T17:23:54.321Z,67.30
2019-05-01T17:26:30.339Z,71.60
2019-05-01T17:29:12.545Z,68.57
2019-05-01T17:31:49.016Z,70.57
2019-05-01T17:39:25.446Z,57.40
2019-05-01T17:42:02.213Z,59.53
2019-05-01T17:44:46.236Z,52.50
2019-05-01T17:47:17.852Z,53.27
2019-05-01T17:49:58.763Z,63.07
2019-05-01T17:52:48.723Z,49.87
2019-05-01T17:55:31.471Z,48.23
2019-05-01T17:58:13.831Z,55.73
2019-05-01T18:01:33.341Z,54.47
2019-05-01T18:04:28.354Z,63.70
2019-05-01T18:09:44.376Z,61.60
2019-05-01T18:12:28.384Z,57.70
2019-05-01T18:15:07.979Z,53.60
2019-05-01T18:17:51.461Z,53.90
2019-05-01T18:20:27.363Z,51.83
2019-05-01T18:23:42.851Z,55.97
2019-05-01T18:26:28.404Z,54.13
2019-05-01T18:29:20.898Z,53.77
2019-05-01T18:31:56.974Z,59.20
2019-05-01T18:34:39.576Z,53.20
2019-05-01T18:37:20.718Z,49.40
2019-05-01T18:44:59.370Z,63.67
2019-05-01T18:47:47.939Z,51.87
2019-05-01T18:50:30.304Z,56.00
2019-05-01T18:53:11.393Z,57.30
2019-05-01T18:58:20.740Z,58.73
2019-05-01T19:00:58.678Z,58.30
2019-05-01T19:03:42.386Z,62.33
2019-05-01T19:06:19.645Z,57.40
2019-05-01T19:11:29.249Z,115.30
2019-05-01T19:14:05.577Z,69.23
2019-05-01T19:16:49.028Z,79.33
2019-05-01T19:19:31.649Z,72.43
2019-05-01T19:22:08.211Z,72.20
2019-05-01T19:24:52.050Z,69.30
2019-05-01T19:27:27.639Z,62.50
2019-05-01T19:29:57.936Z,62.20
2019-05-01T19:32:43.157Z,62.47
2019-05-01T19:35:37.955Z,61.70
2019-05-01T19:38:13.995Z,59.10
2019-05-01T19:40:49.437Z,93.50
2019-05-01T19:43:35.880Z,86.73
2019-05-01T19:46:11.930Z,75.87
2019-05-01T19:48:59.057Z,64.30
2019-05-01T19:51:55.581Z,62.50
2019-05-01T19:54:37.839Z,67.53
2019-05-01T19:57:13.551Z,77.70
2019-05-01T19:59:56.431Z,93.53
2019-05-01T20:02:34.081Z,89.80
2019-05-01T20:07:51.193Z,65.63
2019-05-01T20:10:25.520Z,67.97
2019-05-01T20:15:26.993Z,51.30
2019-05-01T20:18:02.741Z,52.70
2019-05-01T20:20:46.043Z,57.87
2019-05-01T20:23:25.933Z,56.67
2019-05-01T20:28:34.452Z,62.07
2019-05-01T20:31:11.194Z,61.83
2019-05-01T20:33:54.841Z,60.83
2019-05-01T20:36:30.141Z,57.20
2019-05-01T20:39:13.143Z,58.27
2019-05-01T20:42:02.861Z,58.57
2019-05-01T20:47:14.263Z,61.50
2019-05-01T20:49:50.788Z,63.00
2019-05-01T20:52:35.266Z,61.37
2019-05-01T20:55:12.438Z,57.90
2019-05-01T20:57:55.708Z,55.80
2019-05-01T21:00:34.551Z,54.97
2019-05-01T21:05:49.654Z,55.90
2019-05-01T21:08:18.414Z,59.40
2019-05-01T21:11:11.135Z,55.90
2019-05-01T21:13:40.649Z,57.90
2019-05-01T21:16:24.101Z,60.57
2019-05-01T21:19:00.387Z,57.87
2019-05-01T21:21:43.440Z,60.33
2019-05-01T21:24:13.974Z,58.97
2019-05-01T21:26:57.695Z,53.30
2019-05-01T21:29:47.006Z,49.87
2019-05-01T21:35:01.109Z,56.50
2019-05-01T21:37:43.478Z,54.90
2019-05-01T21:40:13.902Z,52.87
2019-05-01T21:42:56.919Z,52.90
2019-05-01T21:45:33.230Z,52.87
2019-05-01T21:48:16.266Z,53.87
2019-05-01T21:50:53.717Z,52.50
2019-05-01T21:53:42.043Z,50.60
2019-05-01T21:56:07.684Z,54.57
2019-05-01T21:58:52.028Z,54.37
2019-05-01T22:01:38.040Z,58.37
2019-05-01T22:04:15.862Z,58.80
2019-05-01T22:06:58.231Z,56.13
2019-05-01T22:09:34.732Z,53.02
2019-05-01T22:12:17.722Z,48.77
2019-05-01T22:15:11.055Z,48.27
2019-05-01T22:17:58.135Z,44.20
2019-05-01T22:23:21.981Z,46.60
2019-05-01T22:26:07.806Z,48.50
2019-05-01T22:28:54.842Z,48.35
2019-05-01T22:31:38.031Z,47.03
2019-05-01T22:35:03.565Z,51.77
2019-05-01T22:40:16.594Z,52.73
2019-05-01T22:42:53.205Z,51.48
2019-05-01T22:50:29.753Z,50.93
2019-05-01T22:53:07.837Z,45.70
2019-05-01T22:55:49.888Z,47.15
2019-05-01T22:58:18.829Z,49.95
2019-05-01T23:01:04.067Z,51.53
2019-05-01T23:04:04.627Z,45.08
2019-05-01T23:06:49.911Z,47.03
2019-05-01T23:09:30.180Z,45.33
2019-05-01T23:12:16.183Z,48.92
2019-05-01T23:14:44.458Z,49.50
2019-05-01T23:17:12.795Z,49.58
2019-05-01T23:20:03.963Z,47.95
2019-05-01T23:22:28.683Z,56.02
2019-05-01T23:24:56.399Z,47.73
2019-05-01T23:27:38.807Z,45.60
2019-05-01T23:30:18.863Z,47.62
2019-05-01T23:33:01.911Z,50.40
2019-05-01T23:35:43.819Z,52.85
2019-05-01T23:38:19.397Z,48.17
2019-05-01T23:41:01.907Z,46.73
2019-05-01T23:43:37.879Z,45.25
2019-05-01T23:46:20.391Z,44.33
2019-05-01T23:48:56.757Z,46.50
2019-05-01T23:51:43.453Z,49.63
2019-05-01T23:54:20.444Z,46.33
2019-05-01T23:56:47.999Z,48.45
2019-05-01T23:59:30.895Z,44.08
